PWSweather.com
Personal Weather Stations
Station Observations
KNVELKO7
Elko, NV 89801

Elko, NV 89801

Lat: 40.963233, Lon: -115.592836

Elevation: 5230

Station Type: WS-2812

High Low Average
Temperature 34.4°F1.3°C 13.7°F-10.2°C 23.5°F-4.7°C
Dew Point 30.5°F-0.8°C 10.5°F-11.9°C 20.1°F-6.6°C
Winds 5.6 mph 9.0 kmh Calm Calm 1.0 mph ESE1.6 kmh ESE
Wind Gusts 6.9 mph11.1 kmh -- 2.0 mph3.2 kmh
Humidity 90% 81% 87%
Pressure 30.05 in1017.6 mb 29.96 in1014.6 mb -
Precipitation 0.00 in0.0 mm - -
Hour Temp Dew Point Humidity Winds Wind Gusts Pressure Precip Precip Rate Daily Precip Total
12:00 AM 19.6°F-6.9°C 16.0°F-8.9°C 86% 1.9 mph SSW3.1 kmh SSW 2.7 mph4.3 kmh 29.98 in1015.2 mb 0.00 in0.0 mm 0.00 in/hr0.0 mm/hr 0.00 in0.0 mm
12:05 AM 19.3°F-7.1°C 15.7°F-9.1°C 86% 2.6 mph E4.2 kmh E 2.9 mph4.7 kmh 29.98 in1015.2 mb 0.00 in0.0 mm 0.00 in/hr0.0 mm/hr 0.00 in0.0 mm
12:10 AM 19.3°F-7.1°C 15.7°F-9.1°C 86% 1.4 mph ENE2.3 kmh ENE 4.7 mph7.6 kmh 29.98 in1015.2 mb 0.00 in0.0 mm 0.00 in/hr0.0 mm/hr 0.00 in0.0 mm
12:15 AM 19.3°F-7.1°C 15.7°F-9.1°C 86% Calm Calm 4.7 mph7.6 kmh 29.98 in1015.2 mb 0.00 in0.0 mm 0.00 in/hr0.0 mm/hr 0.00 in0.0 mm
12:20 AM 19.1°F-7.2°C 15.5°F-9.2°C 86% 0.4 mph ESE0.6 kmh ESE 0.4 mph0.6 kmh 29.98 in1015.2 mb 0.00 in0.0 mm 0.00 in/hr0.0 mm/hr 0.00 in0.0 mm
12:25 AM 18.7°F-7.4°C 15.1°F-9.4°C 86% 1.6 mph NE2.6 kmh NE 1.6 mph2.6 kmh 29.97 in1014.9 mb 0.00 in0.0 mm 0.00 in/hr0.0 mm/hr 0.00 in0.0 mm
12:30 AM 18.9°F-7.3°C 15.3°F-9.3°C 86% Calm Calm 2.5 mph4.0 kmh 29.97 in1014.9 mb 0.00 in0.0 mm 0.00 in/hr0.0 mm/hr 0.00 in0.0 mm
12:35 AM 19.1°F-7.2°C 15.5°F-9.2°C 86% Calm Calm 2.5 mph4.0 kmh 29.97 in1014.9 mb 0.00 in0.0 mm 0.00 in/hr0.0 mm/hr 0.00 in0.0 mm
12:40 AM 19.1°F-7.2°C 15.5°F-9.2°C 86% 2.6 mph NE4.2 kmh NE 4.3 mph6.9 kmh 29.97 in1014.9 mb 0.00 in0.0 mm 0.00 in/hr0.0 mm/hr 0.00 in0.0 mm
12:45 AM 18.9°F-7.3°C 15.3°F-9.3°C 86% 4.2 mph NE6.8 kmh NE 4.3 mph6.9 kmh 29.97 in1014.9 mb 0.00 in0.0 mm 0.00 in/hr0.0 mm/hr 0.00 in0.0 mm
12:50 AM 18.5°F-7.5°C 14.9°F-9.5°C 86% 2.9 mph ENE4.7 kmh ENE 4.3 mph6.9 kmh 29.97 in1014.9 mb 0.00 in0.0 mm 0.00 in/hr0.0 mm/hr 0.00 in0.0 mm
12:55 AM 18.2°F-7.7°C 14.6°F-9.7°C 86% 0.2 mph NNE0.3 kmh NNE 4.3 mph6.9 kmh 29.97 in1014.9 mb 0.00 in0.0 mm 0.00 in/hr0.0 mm/hr 0.00 in0.0 mm
01:00 AM 17.8°F-7.9°C 14.2°F-9.9°C 86% 1.3 mph ENE2.1 kmh ENE 2.2 mph3.5 kmh 29.97 in1014.9 mb 0.00 in0.0 mm 0.00 in/hr0.0 mm/hr 0.00 in0.0 mm
01:05 AM 17.6°F-8.0°C 14.0°F-10.0°C 86% 0.2 mph 0.3 kmh 2.2 mph3.5 kmh 29.97 in1014.9 mb 0.00 in0.0 mm 0.00 in/hr0.0 mm/hr 0.00 in0.0 mm
01:10 AM 17.6°F-8.0°C 14.3°F-9.8°C 87% Calm Calm 0.7 mph1.1 kmh 29.97 in1014.9 mb 0.00 in0.0 mm 0.00 in/hr0.0 mm/hr 0.00 in0.0 mm
01:15 AM 17.5°F-8.1°C 14.1°F-9.9°C 87% Calm Calm 0.2 mph0.3 kmh 29.97 in1014.9 mb 0.00 in0.0 mm 0.00 in/hr0.0 mm/hr 0.00 in0.0 mm
01:20 AM 17.3°F-8.2°C 14.0°F-10.0°C 87% Calm Calm -- 29.97 in1014.9 mb 0.00 in0.0 mm 0.00 in/hr0.0 mm/hr 0.00 in0.0 mm
01:25 AM 17.3°F-8.2°C 14.0°F-10.0°C 87% Calm Calm -- 29.97 in1014.9 mb 0.00 in0.0 mm 0.00 in/hr0.0 mm/hr 0.00 in0.0 mm
01:30 AM 17.3°F-8.2°C 14.0°F-10.0°C 87% 0.4 mph 0.6 kmh 0.4 mph0.6 kmh 29.97 in1014.9 mb 0.00 in0.0 mm 0.00 in/hr0.0 mm/hr 0.00 in0.0 mm
01:35 AM 17.3°F-8.2°C 14.0°F-10.0°C 87% Calm Calm 1.1 mph1.8 kmh 29.97 in1014.9 mb 0.00 in0.0 mm 0.00 in/hr0.0 mm/hr 0.00 in0.0 mm
01:40 AM 17.1°F-8.3°C 13.8°F-10.1°C 87% 0.2 mph NNE0.3 kmh NNE 1.1 mph1.8 kmh 29.97 in1014.9 mb 0.00 in0.0 mm 0.00 in/hr0.0 mm/hr 0.00 in0.0 mm
01:45 AM 17.1°F-8.3°C 13.8°F-10.1°C 87% Calm Calm 0.2 mph0.3 kmh 29.97 in1014.9 mb 0.00 in0.0 mm 0.00 in/hr0.0 mm/hr 0.00 in0.0 mm
01:50 AM 17.3°F-8.2°C 14.0°F-10.0°C 87% Calm Calm -- 29.97 in1014.9 mb 0.00 in0.0 mm 0.00 in/hr0.0 mm/hr 0.00 in0.0 mm
01:55 AM 17.5°F-8.1°C 14.1°F-9.9°C 87% Calm Calm -- 29.97 in1014.9 mb 0.00 in0.0 mm 0.00 in/hr0.0 mm/hr 0.00 in0.0 mm
02:01 AM 17.6°F-8.0°C 14.3°F-9.8°C 87% Calm Calm -- 29.97 in1014.9 mb 0.00 in0.0 mm 0.00 in/hr0.0 mm/hr 0.00 in0.0 mm
02:06 AM 17.8°F-7.9°C 14.5°F-9.7°C 87% Calm Calm -- 29.97 in1014.9 mb 0.00 in0.0 mm 0.00 in/hr0.0 mm/hr 0.00 in0.0 mm
02:10 AM 18.0°F-7.8°C 14.7°F-9.6°C 87% 0.2 mph NNE0.3 kmh NNE 0.2 mph0.3 kmh 29.97 in1014.9 mb 0.00 in0.0 mm 0.00 in/hr0.0 mm/hr 0.00 in0.0 mm
02:15 AM 18.5°F-7.5°C 15.2°F-9.3°C 87% 4.5 mph NNE7.2 kmh NNE 4.7 mph7.6 kmh 29.98 in1015.2 mb 0.00 in0.0 mm 0.00 in/hr0.0 mm/hr 0.00 in0.0 mm
02:20 AM 19.8°F-6.8°C 16.5°F-8.6°C 87% 5.5 mph NE8.9 kmh NE 6.3 mph10.1 kmh 29.97 in1014.9 mb 0.00 in0.0 mm 0.00 in/hr0.0 mm/hr 0.00 in0.0 mm
02:25 AM 20.5°F-6.4°C 17.2°F-8.2°C 87% 5.6 mph NE9.0 kmh NE 6.5 mph10.5 kmh 29.97 in1014.9 mb 0.00 in0.0 mm 0.00 in/hr0.0 mm/hr 0.00 in0.0 mm
02:30 AM 20.7°F-6.3°C 17.4°F-8.1°C 87% 3.8 mph NE6.1 kmh NE 6.5 mph10.5 kmh 29.97 in1014.9 mb 0.00 in0.0 mm 0.00 in/hr0.0 mm/hr 0.00 in0.0 mm
02:35 AM 20.9°F-6.2°C 17.6°F-8.0°C 87% 4.3 mph NE6.9 kmh NE 6.0 mph9.7 kmh 29.97 in1014.9 mb 0.00 in0.0 mm 0.00 in/hr0.0 mm/hr 0.00 in0.0 mm
02:40 AM 20.7°F-6.3°C 17.4°F-8.1°C 87% 4.6 mph NE7.4 kmh NE 6.0 mph9.7 kmh 29.97 in1014.9 mb 0.00 in0.0 mm 0.00 in/hr0.0 mm/hr 0.00 in0.0 mm
02:45 AM 20.9°F-6.2°C 17.6°F-8.0°C 87% 3.8 mph NE6.1 kmh NE 5.1 mph8.2 kmh 29.97 in1014.9 mb 0.00 in0.0 mm 0.00 in/hr0.0 mm/hr 0.00 in0.0 mm
02:50 AM 20.9°F-6.2°C 17.6°F-8.0°C 87% 4.1 mph NE6.6 kmh NE 5.1 mph8.2 kmh 29.97 in1014.9 mb 0.00 in0.0 mm 0.00 in/hr0.0 mm/hr 0.00 in0.0 mm
02:55 AM 20.9°F-6.2°C 17.8°F-7.9°C 88% 2.3 mph NNE3.7 kmh NNE 4.5 mph7.2 kmh 29.97 in1014.9 mb 0.00 in0.0 mm 0.00 in/hr0.0 mm/hr 0.00 in0.0 mm
03:01 AM 20.9°F-6.2°C 17.8°F-7.9°C 88% 5.1 mph 8.2 kmh 5.4 mph8.7 kmh 29.97 in1014.9 mb 0.00 in0.0 mm 0.00 in/hr0.0 mm/hr 0.00 in0.0 mm
03:06 AM 20.5°F-6.4°C 17.5°F-8.1°C 88% 5.1 mph N8.2 kmh N 6.9 mph11.1 kmh 29.97 in1014.9 mb 0.00 in0.0 mm 0.00 in/hr0.0 mm/hr 0.00 in0.0 mm
03:11 AM 20.0°F-6.7°C 16.9°F-8.4°C 88% 4.3 mph 6.9 kmh 6.9 mph11.1 kmh 29.97 in1014.9 mb 0.00 in0.0 mm 0.00 in/hr0.0 mm/hr 0.00 in0.0 mm
03:16 AM 19.8°F-6.8°C 16.7°F-8.5°C 88% 2.5 mph 4.0 kmh 6.0 mph9.7 kmh 29.97 in1014.9 mb 0.00 in0.0 mm 0.00 in/hr0.0 mm/hr 0.00 in0.0 mm
03:21 AM 19.6°F-6.9°C 16.6°F-8.6°C 88% 1.0 mph N1.6 kmh N 6.0 mph9.7 kmh 29.97 in1014.9 mb 0.00 in0.0 mm 0.00 in/hr0.0 mm/hr 0.00 in0.0 mm
03:26 AM 19.4°F-7.0°C 16.4°F-8.7°C 88% 2.0 mph 3.2 kmh 2.2 mph3.5 kmh 29.97 in1014.9 mb 0.00 in0.0 mm 0.00 in/hr0.0 mm/hr 0.00 in0.0 mm
03:31 AM 19.4°F-7.0°C 16.4°F-8.7°C 88% 1.1 mph 1.8 kmh 2.2 mph3.5 kmh 29.97 in1014.9 mb 0.00 in0.0 mm 0.00 in/hr0.0 mm/hr 0.00 in0.0 mm
03:36 AM 19.6°F-6.9°C 16.6°F-8.6°C 88% 0.8 mph 1.3 kmh 1.6 mph2.6 kmh 29.97 in1014.9 mb 0.00 in0.0 mm 0.00 in/hr0.0 mm/hr 0.00 in0.0 mm
03:41 AM 19.6°F-6.9°C 16.6°F-8.6°C 88% 1.8 mph 2.9 kmh 1.8 mph2.9 kmh 29.97 in1014.9 mb 0.00 in0.0 mm 0.00 in/hr0.0 mm/hr 0.00 in0.0 mm
03:46 AM 19.6°F-6.9°C 16.6°F-8.6°C 88% 1.2 mph 1.9 kmh 3.4 mph5.5 kmh 29.97 in1014.9 mb 0.00 in0.0 mm 0.00 in/hr0.0 mm/hr 0.00 in0.0 mm
03:50 AM 19.6°F-6.9°C 16.6°F-8.6°C 88% 1.8 mph 2.9 kmh 3.4 mph5.5 kmh 29.97 in1014.9 mb 0.00 in0.0 mm 0.00 in/hr0.0 mm/hr 0.00 in0.0 mm
03:55 AM 19.6°F-6.9°C 16.6°F-8.6°C 88% 2.7 mph 4.3 kmh 3.6 mph5.8 kmh 29.97 in1014.9 mb 0.00 in0.0 mm 0.00 in/hr0.0 mm/hr 0.00 in0.0 mm
04:01 AM 19.6°F-6.9°C 16.6°F-8.6°C 88% 3.6 mph 5.8 kmh 3.8 mph6.1 kmh 29.97 in1014.9 mb 0.00 in0.0 mm 0.00 in/hr0.0 mm/hr 0.00 in0.0 mm
04:06 AM 19.6°F-6.9°C 16.6°F-8.6°C 88% 1.9 mph NNE3.1 kmh NNE 3.8 mph6.1 kmh 29.97 in1014.9 mb 0.00 in0.0 mm 0.00 in/hr0.0 mm/hr 0.00 in0.0 mm
04:11 AM 19.6°F-6.9°C 16.6°F-8.6°C 88% 1.2 mph 1.9 kmh 3.6 mph5.8 kmh 29.97 in1014.9 mb 0.00 in0.0 mm 0.00 in/hr0.0 mm/hr 0.00 in0.0 mm
04:16 AM 19.8°F-6.8°C 16.7°F-8.5°C 88% 4.0 mph 6.4 kmh 4.0 mph6.4 kmh 29.97 in1014.9 mb 0.00 in0.0 mm 0.00 in/hr0.0 mm/hr 0.00 in0.0 mm
04:21 AM 19.8°F-6.8°C 16.7°F-8.5°C 88% 3.3 mph N5.3 kmh N 5.1 mph8.2 kmh 29.97 in1014.9 mb 0.00 in0.0 mm 0.00 in/hr0.0 mm/hr 0.00 in0.0 mm
04:26 AM 19.8°F-6.8°C 16.7°F-8.5°C 88% 3.1 mph NE5.0 kmh NE 5.1 mph8.2 kmh 29.97 in1014.9 mb 0.00 in0.0 mm 0.00 in/hr0.0 mm/hr 0.00 in0.0 mm
04:31 AM 20.0°F-6.7°C 16.9°F-8.4°C 88% 2.1 mph NNE3.4 kmh NNE 4.0 mph6.4 kmh 29.97 in1014.9 mb 0.00 in0.0 mm 0.00 in/hr0.0 mm/hr 0.00 in0.0 mm
04:36 AM 20.2°F-6.6°C 17.1°F-8.3°C 88% 2.9 mph NE4.7 kmh NE 3.8 mph6.1 kmh 29.97 in1014.9 mb 0.00 in0.0 mm 0.00 in/hr0.0 mm/hr 0.00 in0.0 mm
04:41 AM 20.2°F-6.6°C 17.1°F-8.3°C 88% 2.0 mph N3.2 kmh N 3.8 mph6.1 kmh 29.97 in1014.9 mb 0.00 in0.0 mm 0.00 in/hr0.0 mm/hr 0.00 in0.0 mm
04:46 AM 20.2°F-6.6°C 17.1°F-8.3°C 88% 0.9 mph NNW1.4 kmh NNW 2.5 mph4.0 kmh 29.97 in1014.9 mb 0.00 in0.0 mm 0.00 in/hr0.0 mm/hr 0.00 in0.0 mm
04:51 AM 19.3°F-7.1°C 16.2°F-8.8°C 88% 0.6 mph NNW1.0 kmh NNW 2.5 mph4.0 kmh 29.97 in1014.9 mb 0.00 in0.0 mm 0.00 in/hr0.0 mm/hr 0.00 in0.0 mm
04:56 AM 18.5°F-7.5°C 15.5°F-9.2°C 88% 1.6 mph NNW2.6 kmh NNW 1.6 mph2.6 kmh 29.97 in1014.9 mb 0.00 in0.0 mm 0.00 in/hr0.0 mm/hr 0.00 in0.0 mm
05:01 AM 18.0°F-7.8°C 14.7°F-9.6°C 87% 0.6 mph 1.0 kmh 1.6 mph2.6 kmh 29.97 in1014.9 mb 0.00 in0.0 mm 0.00 in/hr0.0 mm/hr 0.00 in0.0 mm
05:06 AM 17.5°F-8.1°C 14.1°F-9.9°C 87% 0.6 mph 1.0 kmh 1.1 mph1.8 kmh 29.97 in1014.9 mb 0.00 in0.0 mm 0.00 in/hr0.0 mm/hr 0.00 in0.0 mm
05:12 AM 16.9°F-8.4°C 13.6°F-10.2°C 87% 0.4 mph 0.6 kmh 0.9 mph1.4 kmh 29.98 in1015.2 mb 0.00 in0.0 mm 0.00 in/hr0.0 mm/hr 0.00 in0.0 mm
05:17 AM 16.9°F-8.4°C 13.6°F-10.2°C 87% 1.1 mph 1.8 kmh 1.8 mph2.9 kmh 29.98 in1015.2 mb 0.00 in0.0 mm 0.00 in/hr0.0 mm/hr 0.00 in0.0 mm
05:22 AM 16.9°F-8.4°C 13.6°F-10.2°C 87% 0.9 mph N1.4 kmh N 1.8 mph2.9 kmh 29.98 in1015.2 mb 0.00 in0.0 mm 0.00 in/hr0.0 mm/hr 0.00 in0.0 mm
05:27 AM 16.9°F-8.4°C 13.6°F-10.2°C 87% 2.5 mph N4.0 kmh N 2.5 mph4.0 kmh 29.98 in1015.2 mb 0.00 in0.0 mm 0.00 in/hr0.0 mm/hr 0.00 in0.0 mm
05:32 AM 16.9°F-8.4°C 13.6°F-10.2°C 87% 0.2 mph NNE0.3 kmh NNE 2.5 mph4.0 kmh 29.98 in1015.2 mb 0.00 in0.0 mm 0.00 in/hr0.0 mm/hr 0.00 in0.0 mm
05:37 AM 16.7°F-8.5°C 13.4°F-10.3°C 87% 0.8 mph NNE1.3 kmh NNE 2.0 mph3.2 kmh 29.98 in1015.2 mb 0.00 in0.0 mm 0.00 in/hr0.0 mm/hr 0.00 in0.0 mm
05:42 AM 16.4°F-8.7°C 13.1°F-10.5°C 87% Calm Calm 1.3 mph2.1 kmh 29.98 in1015.2 mb 0.00 in0.0 mm 0.00 in/hr0.0 mm/hr 0.00 in0.0 mm
05:46 AM 16.2°F-8.8°C 12.9°F-10.6°C 87% 0.9 mph NW1.4 kmh NW 1.6 mph2.6 kmh 29.98 in1015.2 mb 0.00 in0.0 mm 0.00 in/hr0.0 mm/hr 0.00 in0.0 mm
05:51 AM 15.7°F-9.1°C 12.4°F-10.9°C 87% Calm Calm 1.6 mph2.6 kmh 29.98 in1015.2 mb 0.00 in0.0 mm 0.00 in/hr0.0 mm/hr 0.00 in0.0 mm
05:56 AM 15.5°F-9.2°C 12.3°F-10.9°C 87% Calm Calm 0.4 mph0.6 kmh 29.98 in1015.2 mb 0.00 in0.0 mm 0.00 in/hr0.0 mm/hr 0.00 in0.0 mm
06:02 AM 15.3°F-9.3°C 12.1°F-11.1°C 87% Calm Calm -- 29.98 in1015.2 mb 0.00 in0.0 mm 0.00 in/hr0.0 mm/hr 0.00 in0.0 mm
06:07 AM 15.3°F-9.3°C 12.1°F-11.1°C 87% Calm Calm -- 29.98 in1015.2 mb 0.00 in0.0 mm 0.00 in/hr0.0 mm/hr 0.00 in0.0 mm
06:12 AM 15.5°F-9.2°C 12.3°F-10.9°C 87% Calm Calm -- 29.98 in1015.2 mb 0.00 in0.0 mm 0.00 in/hr0.0 mm/hr 0.00 in0.0 mm
06:17 AM 15.7°F-9.1°C 12.4°F-10.9°C 87% 0.2 mph NE0.3 kmh NE 0.2 mph0.3 kmh 29.98 in1015.2 mb 0.00 in0.0 mm 0.00 in/hr0.0 mm/hr 0.00 in0.0 mm
06:22 AM 15.8°F-9.0°C 12.6°F-10.8°C 87% Calm Calm 0.2 mph0.3 kmh 29.98 in1015.2 mb 0.00 in0.0 mm 0.00 in/hr0.0 mm/hr 0.00 in0.0 mm
06:27 AM 15.8°F-9.0°C 12.6°F-10.8°C 87% Calm Calm -- 29.98 in1015.2 mb 0.00 in0.0 mm 0.00 in/hr0.0 mm/hr 0.00 in0.0 mm
06:32 AM 15.8°F-9.0°C 12.6°F-10.8°C 87% Calm Calm -- 29.98 in1015.2 mb 0.00 in0.0 mm 0.00 in/hr0.0 mm/hr 0.00 in0.0 mm
06:37 AM 15.5°F-9.2°C 12.3°F-10.9°C 87% Calm Calm -- 29.98 in1015.2 mb 0.00 in0.0 mm 0.00 in/hr0.0 mm/hr 0.00 in0.0 mm
06:42 AM 15.3°F-9.3°C 12.1°F-11.1°C 87% Calm Calm -- 29.98 in1015.2 mb 0.00 in0.0 mm 0.00 in/hr0.0 mm/hr 0.00 in0.0 mm
06:47 AM 14.8°F-9.6°C 11.5°F-11.4°C 87% Calm Calm -- 29.98 in1015.2 mb 0.00 in0.0 mm 0.00 in/hr0.0 mm/hr 0.00 in0.0 mm
06:52 AM 14.8°F-9.6°C 11.5°F-11.4°C 87% Calm Calm -- 29.99 in1015.6 mb 0.00 in0.0 mm 0.00 in/hr0.0 mm/hr 0.00 in0.0 mm
06:57 AM 14.6°F-9.7°C 11.4°F-11.4°C 87% Calm Calm 0.4 mph0.6 kmh 29.99 in1015.6 mb 0.00 in0.0 mm 0.00 in/hr0.0 mm/hr 0.00 in0.0 mm
07:02 AM 14.6°F-9.7°C 11.4°F-11.4°C 87% 1.6 mph 2.6 kmh 2.0 mph3.2 kmh 29.98 in1015.2 mb 0.00 in0.0 mm 0.00 in/hr0.0 mm/hr 0.00 in0.0 mm
07:07 AM 14.4°F-9.8°C 11.3°F-11.5°C 87% 0.2 mph 0.3 kmh 2.0 mph3.2 kmh 29.98 in1015.2 mb 0.00 in0.0 mm 0.00 in/hr0.0 mm/hr 0.00 in0.0 mm
07:12 AM 14.4°F-9.8°C 11.3°F-11.5°C 87% Calm Calm 0.2 mph0.3 kmh 29.99 in1015.6 mb 0.00 in0.0 mm 0.00 in/hr0.0 mm/hr 0.00 in0.0 mm
07:17 AM 14.6°F-9.7°C 11.4°F-11.4°C 87% 0.6 mph N1.0 kmh N 0.7 mph1.1 kmh 29.99 in1015.6 mb 0.00 in0.0 mm 0.00 in/hr0.0 mm/hr 0.00 in0.0 mm
07:22 AM 14.0°F-10.0°C 10.9°F-11.7°C 87% 0.8 mph N1.3 kmh N 1.3 mph2.1 kmh 29.99 in1015.6 mb 0.00 in0.0 mm 0.00 in/hr0.0 mm/hr 0.00 in0.0 mm
07:27 AM 13.7°F-10.2°C 10.5°F-11.9°C 87% Calm Calm 1.3 mph2.1 kmh 29.99 in1015.6 mb 0.00 in0.0 mm 0.00 in/hr0.0 mm/hr 0.00 in0.0 mm
07:32 AM 13.9°F-10.1°C 10.7°F-11.8°C 87% Calm Calm 0.7 mph1.1 kmh 29.99 in1015.6 mb 0.00 in0.0 mm 0.00 in/hr0.0 mm/hr 0.00 in0.0 mm
07:37 AM 14.0°F-10.0°C 10.9°F-11.7°C 87% Calm Calm -- 29.99 in1015.6 mb 0.00 in0.0 mm 0.00 in/hr0.0 mm/hr 0.00 in0.0 mm
07:42 AM 14.6°F-9.7°C 11.4°F-11.4°C 87% Calm Calm -- 29.99 in1015.6 mb 0.00 in0.0 mm 0.00 in/hr0.0 mm/hr 0.00 in0.0 mm
07:47 AM 14.9°F-9.5°C 12.0°F-11.1°C 88% Calm Calm -- 29.99 in1015.6 mb 0.00 in0.0 mm 0.00 in/hr0.0 mm/hr 0.00 in0.0 mm
07:52 AM 15.1°F-9.4°C 12.2°F-11.0°C 88% Calm Calm -- 29.99 in1015.6 mb 0.00 in0.0 mm 0.00 in/hr0.0 mm/hr 0.00 in0.0 mm
07:57 AM 15.3°F-9.3°C 12.3°F-10.9°C 88% Calm Calm -- 29.99 in1015.6 mb 0.00 in0.0 mm 0.00 in/hr0.0 mm/hr 0.00 in0.0 mm
08:03 AM 15.7°F-9.1°C 12.4°F-10.9°C 87% 2.6 mph NE4.2 kmh NE 3.4 mph5.5 kmh 29.99 in1015.6 mb 0.00 in0.0 mm 0.00 in/hr0.0 mm/hr 0.00 in0.0 mm
08:08 AM 16.0°F-8.9°C 12.8°F-10.7°C 87% 2.0 mph NE3.2 kmh NE 3.4 mph5.5 kmh 29.99 in1015.6 mb 0.00 in0.0 mm 0.00 in/hr0.0 mm/hr 0.00 in0.0 mm
08:12 AM 16.2°F-8.8°C 12.9°F-10.6°C 87% 3.0 mph NE4.8 kmh NE 3.1 mph5.0 kmh 30.00 in1015.9 mb 0.00 in0.0 mm 0.00 in/hr0.0 mm/hr 0.00 in0.0 mm
08:17 AM 16.4°F-8.7°C 13.1°F-10.5°C 87% 2.5 mph E4.0 kmh E 3.8 mph6.1 kmh 30.00 in1015.9 mb 0.00 in0.0 mm 0.00 in/hr0.0 mm/hr 0.00 in0.0 mm
08:22 AM 16.9°F-8.4°C 13.9°F-10.1°C 88% 1.4 mph E2.3 kmh E 3.8 mph6.1 kmh 30.00 in1015.9 mb 0.00 in0.0 mm 0.00 in/hr0.0 mm/hr 0.00 in0.0 mm
08:27 AM 17.3°F-8.2°C 14.2°F-9.9°C 88% 0.9 mph E1.4 kmh E 2.5 mph4.0 kmh 30.00 in1015.9 mb 0.00 in0.0 mm 0.00 in/hr0.0 mm/hr 0.00 in0.0 mm
08:32 AM 17.6°F-8.0°C 14.6°F-9.7°C 88% 1.1 mph E1.8 kmh E 1.3 mph2.1 kmh 30.00 in1015.9 mb 0.00 in0.0 mm 0.00 in/hr0.0 mm/hr 0.00 in0.0 mm
08:37 AM 17.8°F-7.9°C 14.8°F-9.6°C 88% 1.5 mph E2.4 kmh E 1.6 mph2.6 kmh 30.00 in1015.9 mb 0.00 in0.0 mm 0.00 in/hr0.0 mm/hr 0.00 in0.0 mm
08:42 AM 18.2°F-7.7°C 15.4°F-9.2°C 89% 2.0 mph E3.2 kmh E 2.5 mph4.0 kmh 30.00 in1015.9 mb 0.00 in0.0 mm 0.00 in/hr0.0 mm/hr 0.00 in0.0 mm
08:47 AM 18.5°F-7.5°C 15.8°F-9.0°C 89% 2.5 mph E4.0 kmh E 3.1 mph5.0 kmh 30.00 in1015.9 mb 0.00 in0.0 mm 0.00 in/hr0.0 mm/hr 0.00 in0.0 mm
08:52 AM 19.1°F-7.2°C 16.3°F-8.7°C 89% 1.2 mph E1.9 kmh E 3.4 mph5.5 kmh 30.00 in1015.9 mb 0.00 in0.0 mm 0.00 in/hr0.0 mm/hr 0.00 in0.0 mm
08:57 AM 19.6°F-6.9°C 16.8°F-8.4°C 89% 2.0 mph E3.2 kmh E 3.4 mph5.5 kmh 30.00 in1015.9 mb 0.00 in0.0 mm 0.00 in/hr0.0 mm/hr 0.00 in0.0 mm
09:03 AM 20.2°F-6.6°C 17.4°F-8.1°C 89% 2.5 mph E4.0 kmh E 2.9 mph4.7 kmh 30.00 in1015.9 mb 0.00 in0.0 mm 0.00 in/hr0.0 mm/hr 0.00 in0.0 mm
09:08 AM 20.2°F-6.6°C 17.4°F-8.1°C 89% 2.2 mph E3.5 kmh E 2.9 mph4.7 kmh 30.01 in1016.3 mb 0.00 in0.0 mm 0.00 in/hr0.0 mm/hr 0.00 in0.0 mm
09:13 AM 20.3°F-6.5°C 17.6°F-8.0°C 89% 2.3 mph E3.7 kmh E 3.4 mph5.5 kmh 30.01 in1016.3 mb 0.00 in0.0 mm 0.00 in/hr0.0 mm/hr 0.00 in0.0 mm
09:18 AM 20.5°F-6.4°C 17.7°F-7.9°C 89% 1.2 mph ENE1.9 kmh ENE 3.4 mph5.5 kmh 30.01 in1016.3 mb 0.00 in0.0 mm 0.00 in/hr0.0 mm/hr 0.00 in0.0 mm
09:23 AM 20.9°F-6.2°C 18.1°F-7.7°C 89% 1.9 mph E3.1 kmh E 2.5 mph4.0 kmh 30.01 in1016.3 mb 0.00 in0.0 mm 0.00 in/hr0.0 mm/hr 0.00 in0.0 mm
09:28 AM 21.2°F-6.0°C 18.5°F-7.5°C 89% 1.5 mph NE2.4 kmh NE 2.7 mph4.3 kmh 30.01 in1016.3 mb 0.00 in0.0 mm 0.00 in/hr0.0 mm/hr 0.00 in0.0 mm
09:33 AM 21.4°F-5.9°C 18.6°F-7.4°C 89% 2.3 mph ENE3.7 kmh ENE 3.1 mph5.0 kmh 30.01 in1016.3 mb 0.00 in0.0 mm 0.00 in/hr0.0 mm/hr 0.00 in0.0 mm
09:37 AM 21.6°F-5.8°C 18.8°F-7.3°C 89% 1.6 mph E2.6 kmh E 3.1 mph5.0 kmh 30.01 in1016.3 mb 0.00 in0.0 mm 0.00 in/hr0.0 mm/hr 0.00 in0.0 mm
09:42 AM 21.6°F-5.8°C 18.8°F-7.3°C 89% 2.2 mph NE3.5 kmh NE 2.9 mph4.7 kmh 30.01 in1016.3 mb 0.00 in0.0 mm 0.00 in/hr0.0 mm/hr 0.00 in0.0 mm
09:47 AM 21.6°F-5.8°C 18.5°F-7.5°C 88% 1.7 mph E2.7 kmh E 2.9 mph4.7 kmh 30.02 in1016.6 mb 0.00 in0.0 mm 0.00 in/hr0.0 mm/hr 0.00 in0.0 mm
09:52 AM 22.0°F-5.6°C 18.9°F-7.3°C 88% 0.3 mph NE0.5 kmh NE 2.2 mph3.5 kmh 30.02 in1016.6 mb 0.00 in0.0 mm 0.00 in/hr0.0 mm/hr 0.00 in0.0 mm
09:57 AM 22.1°F-5.5°C 19.1°F-7.2°C 88% 1.0 mph N1.6 kmh N 2.5 mph4.0 kmh 30.02 in1016.6 mb 0.00 in0.0 mm 0.00 in/hr0.0 mm/hr 0.00 in0.0 mm
10:03 AM 22.5°F-5.3°C 19.4°F-7.0°C 88% 1.6 mph NE2.6 kmh NE 2.5 mph4.0 kmh 30.02 in1016.6 mb 0.00 in0.0 mm 0.00 in/hr0.0 mm/hr 0.00 in0.0 mm
10:08 AM 22.5°F-5.3°C 19.4°F-7.0°C 88% 1.3 mph 2.1 kmh 2.0 mph3.2 kmh 30.02 in1016.6 mb 0.00 in0.0 mm 0.00 in/hr0.0 mm/hr 0.00 in0.0 mm
10:13 AM 22.7°F-5.2°C 19.6°F-6.9°C 88% 0.7 mph ENE1.1 kmh ENE 2.0 mph3.2 kmh 30.01 in1016.3 mb 0.00 in0.0 mm 0.00 in/hr0.0 mm/hr 0.00 in0.0 mm
10:18 AM 23.2°F-4.9°C 20.2°F-6.6°C 88% Calm Calm 2.0 mph3.2 kmh 30.01 in1016.3 mb 0.00 in0.0 mm 0.00 in/hr0.0 mm/hr 0.00 in0.0 mm
10:23 AM 23.8°F-4.6°C 21.0°F-6.1°C 89% 0.4 mph NNW0.6 kmh NNW 1.1 mph1.8 kmh 30.01 in1016.3 mb 0.00 in0.0 mm 0.00 in/hr0.0 mm/hr 0.00 in0.0 mm
10:28 AM 23.9°F-4.5°C 21.2°F-6.0°C 89% Calm Calm 1.1 mph1.8 kmh 30.01 in1016.3 mb 0.00 in0.0 mm 0.00 in/hr0.0 mm/hr 0.00 in0.0 mm
10:33 AM 24.5°F-4.2°C 21.7°F-5.7°C 89% Calm Calm 0.2 mph0.3 kmh 30.01 in1016.3 mb 0.00 in0.0 mm 0.00 in/hr0.0 mm/hr 0.00 in0.0 mm
10:38 AM 25.2°F-3.8°C 22.7°F-5.2°C 90% Calm Calm -- 30.00 in1015.9 mb 0.00 in0.0 mm 0.00 in/hr0.0 mm/hr 0.00 in0.0 mm
10:43 AM 25.6°F-3.6°C 23.0°F-5.0°C 90% Calm Calm 0.2 mph0.3 kmh 30.00 in1015.9 mb 0.00 in0.0 mm 0.00 in/hr0.0 mm/hr 0.00 in0.0 mm
10:48 AM 25.7°F-3.5°C 23.2°F-4.9°C 90% 0.3 mph NW0.5 kmh NW 0.4 mph0.6 kmh 30.00 in1015.9 mb 0.00 in0.0 mm 0.00 in/hr0.0 mm/hr 0.00 in0.0 mm
10:53 AM 25.9°F-3.4°C 23.4°F-4.8°C 90% 0.2 mph E0.3 kmh E 0.4 mph0.6 kmh 30.00 in1015.9 mb 0.00 in0.0 mm 0.00 in/hr0.0 mm/hr 0.00 in0.0 mm
10:58 AM 26.5°F-3.1°C 23.9°F-4.5°C 90% 0.4 mph NE0.6 kmh NE 0.4 mph0.6 kmh 30.00 in1015.9 mb 0.00 in0.0 mm 0.00 in/hr0.0 mm/hr 0.00 in0.0 mm
11:03 AM 26.8°F-2.9°C 24.3°F-4.3°C 90% 0.9 mph NE1.4 kmh NE 0.9 mph1.4 kmh 30.00 in1015.9 mb 0.00 in0.0 mm 0.00 in/hr0.0 mm/hr 0.00 in0.0 mm
11:08 AM 27.0°F-2.8°C 24.5°F-4.2°C 90% 0.2 mph NNE0.3 kmh NNE 0.9 mph1.4 kmh 30.00 in1015.9 mb 0.00 in0.0 mm 0.00 in/hr0.0 mm/hr 0.00 in0.0 mm
11:13 AM 26.6°F-3.0°C 23.9°F-4.5°C 89% 0.7 mph NE1.1 kmh NE 1.1 mph1.8 kmh 29.99 in1015.6 mb 0.00 in0.0 mm 0.00 in/hr0.0 mm/hr 0.00 in0.0 mm
11:18 AM 26.5°F-3.1°C 23.7°F-4.6°C 89% 1.6 mph ENE2.6 kmh ENE 2.7 mph4.3 kmh 29.99 in1015.6 mb 0.00 in0.0 mm 0.00 in/hr0.0 mm/hr 0.00 in0.0 mm
11:23 AM 26.3°F-3.2°C 23.5°F-4.7°C 89% 0.8 mph E1.3 kmh E 2.7 mph4.3 kmh 29.99 in1015.6 mb 0.00 in0.0 mm 0.00 in/hr0.0 mm/hr 0.00 in0.0 mm
11:28 AM 26.8°F-2.9°C 24.0°F-4.4°C 89% 0.8 mph E1.3 kmh E 1.6 mph2.6 kmh 29.99 in1015.6 mb 0.00 in0.0 mm 0.00 in/hr0.0 mm/hr 0.00 in0.0 mm
11:33 AM 27.5°F-2.5°C 25.0°F-3.9°C 90% 0.2 mph E0.3 kmh E 1.1 mph1.8 kmh 29.99 in1015.6 mb 0.00 in0.0 mm 0.00 in/hr0.0 mm/hr 0.00 in0.0 mm
11:38 AM 28.3°F-2.1°C 25.7°F-3.5°C 90% 0.3 mph SE0.5 kmh SE 0.4 mph0.6 kmh 29.99 in1015.6 mb 0.00 in0.0 mm 0.00 in/hr0.0 mm/hr 0.00 in0.0 mm
11:43 AM 29.0°F-1.7°C 26.5°F-3.1°C 90% 0.9 mph ESE1.4 kmh ESE 0.9 mph1.4 kmh 29.98 in1015.2 mb 0.00 in0.0 mm 0.00 in/hr0.0 mm/hr 0.00 in0.0 mm
11:48 AM 29.3°F-1.5°C 26.6°F-3.0°C 89% Calm Calm 0.9 mph1.4 kmh 29.98 in1015.2 mb 0.00 in0.0 mm 0.00 in/hr0.0 mm/hr 0.00 in0.0 mm
11:53 AM 29.5°F-1.4°C 26.7°F-2.9°C 89% 0.3 mph SE0.5 kmh SE 0.4 mph0.6 kmh 29.98 in1015.2 mb 0.00 in0.0 mm 0.00 in/hr0.0 mm/hr 0.00 in0.0 mm
11:58 AM 30.1°F-1.1°C 27.3°F-2.6°C 89% 0.2 mph SE0.3 kmh SE 0.9 mph1.4 kmh 29.98 in1015.2 mb 0.00 in0.0 mm 0.00 in/hr0.0 mm/hr 0.00 in0.0 mm
12:03 PM 30.4°F-0.9°C 27.6°F-2.4°C 89% Calm Calm 0.9 mph1.4 kmh 29.98 in1015.2 mb 0.00 in0.0 mm 0.00 in/hr0.0 mm/hr 0.00 in0.0 mm
12:08 PM 30.6°F-0.8°C 28.1°F-2.2°C 90% Calm Calm 0.2 mph0.3 kmh 29.97 in1014.9 mb 0.00 in0.0 mm 0.00 in/hr0.0 mm/hr 0.00 in0.0 mm
12:13 PM 30.6°F-0.8°C 27.8°F-2.3°C 89% Calm Calm 1.3 mph2.1 kmh 29.97 in1014.9 mb 0.00 in0.0 mm 0.00 in/hr0.0 mm/hr 0.00 in0.0 mm
12:18 PM 30.6°F-0.8°C 27.8°F-2.3°C 89% 0.8 mph N1.3 kmh N 1.6 mph2.6 kmh 29.97 in1014.9 mb 0.00 in0.0 mm 0.00 in/hr0.0 mm/hr 0.00 in0.0 mm
12:23 PM 30.6°F-0.8°C 27.8°F-2.3°C 89% 0.2 mph SSE0.3 kmh SSE 1.6 mph2.6 kmh 29.97 in1014.9 mb 0.00 in0.0 mm 0.00 in/hr0.0 mm/hr 0.00 in0.0 mm
12:28 PM 31.3°F-0.4°C 28.5°F-1.9°C 89% 0.8 mph SE1.3 kmh SE 1.6 mph2.6 kmh 29.97 in1014.9 mb 0.00 in0.0 mm 0.00 in/hr0.0 mm/hr 0.00 in0.0 mm
12:33 PM 32.2°F0.1°C 29.4°F-1.4°C 89% 1.1 mph SE1.8 kmh SE 1.6 mph2.6 kmh 29.97 in1014.9 mb 0.00 in0.0 mm 0.00 in/hr0.0 mm/hr 0.00 in0.0 mm
12:38 PM 32.8°F0.4°C 29.6°F-1.3°C 88% Calm Calm 1.1 mph1.8 kmh 29.97 in1014.9 mb 0.00 in0.0 mm 0.00 in/hr0.0 mm/hr 0.00 in0.0 mm
12:43 PM 32.9°F0.5°C 29.8°F-1.2°C 88% 0.7 mph SE1.1 kmh SE 1.1 mph1.8 kmh 29.97 in1014.9 mb 0.00 in0.0 mm 0.00 in/hr0.0 mm/hr 0.00 in0.0 mm
12:48 PM 33.1°F0.6°C 29.6°F-1.3°C 87% 0.5 mph S0.8 kmh S 0.9 mph1.4 kmh 29.97 in1014.9 mb 0.00 in0.0 mm 0.00 in/hr0.0 mm/hr 0.00 in0.0 mm
12:53 PM 33.5°F0.8°C 29.7°F-1.3°C 86% 1.1 mph SSE1.8 kmh SSE 1.1 mph1.8 kmh 29.97 in1014.9 mb 0.00 in0.0 mm 0.00 in/hr0.0 mm/hr 0.00 in0.0 mm
12:58 PM 34.0°F1.1°C 30.2°F-1.0°C 86% 0.2 mph S0.3 kmh S 1.1 mph1.8 kmh 29.97 in1014.9 mb 0.00 in0.0 mm 0.00 in/hr0.0 mm/hr 0.00 in0.0 mm
01:04 PM 34.4°F1.3°C 30.5°F-0.8°C 86% 0.4 mph ESE0.6 kmh ESE 1.3 mph2.1 kmh 29.97 in1014.9 mb 0.00 in0.0 mm 0.00 in/hr0.0 mm/hr 0.00 in0.0 mm
01:09 PM 34.4°F1.3°C 30.2°F-1.0°C 85% 0.2 mph E0.3 kmh E 1.3 mph2.1 kmh 29.96 in1014.6 mb 0.00 in0.0 mm 0.00 in/hr0.0 mm/hr 0.00 in0.0 mm
01:14 PM 34.2°F1.2°C 29.8°F-1.2°C 84% Calm Calm 0.7 mph1.1 kmh 29.96 in1014.6 mb 0.00 in0.0 mm 0.00 in/hr0.0 mm/hr 0.00 in0.0 mm
01:19 PM 34.0°F1.1°C 29.6°F-1.3°C 84% 0.2 mph NW0.3 kmh NW 0.2 mph0.3 kmh 29.96 in1014.6 mb 0.00 in0.0 mm 0.00 in/hr0.0 mm/hr 0.00 in0.0 mm
01:23 PM 33.5°F0.8°C 28.8°F-1.8°C 83% Calm Calm 0.2 mph0.3 kmh 29.96 in1014.6 mb 0.00 in0.0 mm 0.00 in/hr0.0 mm/hr 0.00 in0.0 mm
01:28 PM 33.7°F0.9°C 29.0°F-1.7°C 83% 0.2 mph SE0.3 kmh SE 0.2 mph0.3 kmh 29.96 in1014.6 mb 0.00 in0.0 mm 0.00 in/hr0.0 mm/hr 0.00 in0.0 mm
01:33 PM 34.2°F1.2°C 29.8°F-1.2°C 84% 0.2 mph S0.3 kmh S 0.2 mph0.3 kmh 29.96 in1014.6 mb 0.00 in0.0 mm 0.00 in/hr0.0 mm/hr 0.00 in0.0 mm
01:38 PM 34.2°F1.2°C 29.8°F-1.2°C 84% 0.2 mph WSW0.3 kmh WSW 1.6 mph2.6 kmh 29.96 in1014.6 mb 0.00 in0.0 mm 0.00 in/hr0.0 mm/hr 0.00 in0.0 mm
01:43 PM 34.0°F1.1°C 29.6°F-1.3°C 84% Calm Calm 1.6 mph2.6 kmh 29.96 in1014.6 mb 0.00 in0.0 mm 0.00 in/hr0.0 mm/hr 0.00 in0.0 mm
01:48 PM 34.0°F1.1°C 29.4°F-1.4°C 83% 0.2 mph NE0.3 kmh NE 0.2 mph0.3 kmh 29.96 in1014.6 mb 0.00 in0.0 mm 0.00 in/hr0.0 mm/hr 0.00 in0.0 mm
01:53 PM 33.7°F0.9°C 28.7°F-1.8°C 82% 1.1 mph WNW1.8 kmh WNW 1.1 mph1.8 kmh 29.96 in1014.6 mb 0.00 in0.0 mm 0.00 in/hr0.0 mm/hr 0.00 in0.0 mm
01:58 PM 33.7°F0.9°C 28.7°F-1.8°C 82% 1.1 mph SW1.8 kmh SW 2.7 mph4.3 kmh 29.96 in1014.6 mb 0.00 in0.0 mm 0.00 in/hr0.0 mm/hr 0.00 in0.0 mm
02:04 PM 33.3°F0.7°C 28.4°F-2.0°C 82% 2.0 mph SW3.2 kmh SW 3.4 mph5.5 kmh 29.96 in1014.6 mb 0.00 in0.0 mm 0.00 in/hr0.0 mm/hr 0.00 in0.0 mm
02:09 PM 33.3°F0.7°C 28.4°F-2.0°C 82% 0.6 mph SSW1.0 kmh SSW 3.4 mph5.5 kmh 29.96 in1014.6 mb 0.00 in0.0 mm 0.00 in/hr0.0 mm/hr 0.00 in0.0 mm
02:14 PM 33.5°F0.8°C 28.8°F-1.8°C 83% Calm Calm 1.6 mph2.6 kmh 29.96 in1014.6 mb 0.00 in0.0 mm 0.00 in/hr0.0 mm/hr 0.00 in0.0 mm
02:19 PM 33.7°F0.9°C 29.0°F-1.7°C 83% 0.2 mph SSW0.3 kmh SSW 0.4 mph0.6 kmh 29.96 in1014.6 mb 0.00 in0.0 mm 0.00 in/hr0.0 mm/hr 0.00 in0.0 mm
02:24 PM 33.8°F1.0°C 28.8°F-1.8°C 82% 0.4 mph W0.6 kmh W 0.4 mph0.6 kmh 29.96 in1014.6 mb 0.00 in0.0 mm 0.00 in/hr0.0 mm/hr 0.00 in0.0 mm
02:29 PM 33.5°F0.8°C 28.5°F-1.9°C 82% Calm Calm 1.6 mph2.6 kmh 29.96 in1014.6 mb 0.00 in0.0 mm 0.00 in/hr0.0 mm/hr 0.00 in0.0 mm
02:34 PM 33.5°F0.8°C 28.5°F-1.9°C 82% 0.9 mph SW1.4 kmh SW 1.6 mph2.6 kmh 29.96 in1014.6 mb 0.00 in0.0 mm 0.00 in/hr0.0 mm/hr 0.00 in0.0 mm
02:39 PM 33.3°F0.7°C 28.1°F-2.2°C 81% 1.5 mph WSW2.4 kmh WSW 1.8 mph2.9 kmh 29.96 in1014.6 mb 0.00 in0.0 mm 0.00 in/hr0.0 mm/hr 0.00 in0.0 mm
02:44 PM 32.8°F0.4°C 27.5°F-2.5°C 81% 0.9 mph WNW1.4 kmh WNW 1.8 mph2.9 kmh 29.96 in1014.6 mb 0.00 in0.0 mm 0.00 in/hr0.0 mm/hr 0.00 in0.0 mm
02:49 PM 32.0°F0.0°C 26.9°F-2.8°C 81% 0.9 mph NW1.4 kmh NW 2.0 mph3.2 kmh 29.97 in1014.9 mb 0.00 in0.0 mm 0.00 in/hr0.0 mm/hr 0.00 in0.0 mm
02:54 PM 31.7°F-0.2°C 26.8°F-2.9°C 82% Calm Calm 2.0 mph3.2 kmh 29.97 in1014.9 mb 0.00 in0.0 mm 0.00 in/hr0.0 mm/hr 0.00 in0.0 mm
02:58 PM 31.7°F-0.2°C 26.8°F-2.9°C 82% 1.1 mph SW1.8 kmh SW 1.8 mph2.9 kmh 29.97 in1014.9 mb 0.00 in0.0 mm 0.00 in/hr0.0 mm/hr 0.00 in0.0 mm
03:04 PM 31.9°F-0.1°C 27.4°F-2.6°C 83% Calm Calm 1.8 mph2.9 kmh 29.97 in1014.9 mb 0.00 in0.0 mm 0.00 in/hr0.0 mm/hr 0.00 in0.0 mm
03:09 PM 32.0°F0.0°C 27.6°F-2.4°C 83% Calm Calm 0.4 mph0.6 kmh 29.97 in1014.9 mb 0.00 in0.0 mm 0.00 in/hr0.0 mm/hr 0.00 in0.0 mm
03:14 PM 32.0°F0.0°C 27.6°F-2.4°C 83% Calm Calm 0.4 mph0.6 kmh 29.97 in1014.9 mb 0.00 in0.0 mm 0.00 in/hr0.0 mm/hr 0.00 in0.0 mm
03:19 PM 32.0°F0.0°C 27.2°F-2.7°C 82% 1.6 mph WSW2.6 kmh WSW 1.6 mph2.6 kmh 29.97 in1014.9 mb 0.00 in0.0 mm 0.00 in/hr0.0 mm/hr 0.00 in0.0 mm
03:24 PM 31.5°F-0.3°C 26.6°F-3.0°C 82% 0.2 mph WSW0.3 kmh WSW 2.7 mph4.3 kmh 29.97 in1014.9 mb 0.00 in0.0 mm 0.00 in/hr0.0 mm/hr 0.00 in0.0 mm
03:29 PM 30.8°F-0.7°C 25.9°F-3.4°C 82% 2.0 mph SW3.2 kmh SW 2.7 mph4.3 kmh 29.98 in1015.2 mb 0.00 in0.0 mm 0.00 in/hr0.0 mm/hr 0.00 in0.0 mm
03:34 PM 30.6°F-0.8°C 26.1°F-3.3°C 83% 0.4 mph WNW0.6 kmh WNW 2.2 mph3.5 kmh 29.98 in1015.2 mb 0.00 in0.0 mm 0.00 in/hr0.0 mm/hr 0.00 in0.0 mm
03:39 PM 30.1°F-1.1°C 25.6°F-3.6°C 83% 2.1 mph WSW3.4 kmh WSW 4.3 mph6.9 kmh 29.98 in1015.2 mb 0.00 in0.0 mm 0.00 in/hr0.0 mm/hr 0.00 in0.0 mm
03:44 PM 29.9°F-1.2°C 25.4°F-3.7°C 83% 1.3 mph SSW2.1 kmh SSW 4.3 mph6.9 kmh 29.98 in1015.2 mb 0.00 in0.0 mm 0.00 in/hr0.0 mm/hr 0.00 in0.0 mm
03:49 PM 29.7°F-1.3°C 25.2°F-3.8°C 83% 0.7 mph NW1.1 kmh NW 1.8 mph2.9 kmh 29.98 in1015.2 mb 0.00 in0.0 mm 0.00 in/hr0.0 mm/hr 0.00 in0.0 mm
03:54 PM 29.5°F-1.4°C 25.0°F-3.9°C 83% 0.4 mph SW0.6 kmh SW 0.7 mph1.1 kmh 29.98 in1015.2 mb 0.00 in0.0 mm 0.00 in/hr0.0 mm/hr 0.00 in0.0 mm
04:00 PM 29.3°F-1.5°C 24.9°F-3.9°C 83% 1.8 mph SW2.9 kmh SW 3.4 mph5.5 kmh 29.98 in1015.2 mb 0.00 in0.0 mm 0.00 in/hr0.0 mm/hr 0.00 in0.0 mm
04:04 PM 29.2°F-1.6°C 24.7°F-4.1°C 83% 2.1 mph WSW3.4 kmh WSW 3.4 mph5.5 kmh 29.99 in1015.6 mb 0.00 in0.0 mm 0.00 in/hr0.0 mm/hr 0.00 in0.0 mm
04:09 PM 28.6°F-1.9°C 24.1°F-4.4°C 83% 2.5 mph WSW4.0 kmh WSW 3.4 mph5.5 kmh 29.99 in1015.6 mb 0.00 in0.0 mm 0.00 in/hr0.0 mm/hr 0.00 in0.0 mm
04:14 PM 28.1°F-2.2°C 23.9°F-4.5°C 84% 1.8 mph SW2.9 kmh SW 3.4 mph5.5 kmh 29.99 in1015.6 mb 0.00 in0.0 mm 0.00 in/hr0.0 mm/hr 0.00 in0.0 mm
04:19 PM 27.9°F-2.3°C 23.4°F-4.8°C 83% 1.0 mph SW1.6 kmh SW 2.7 mph4.3 kmh 29.99 in1015.6 mb 0.00 in0.0 mm 0.00 in/hr0.0 mm/hr 0.00 in0.0 mm
04:24 PM 27.7°F-2.4°C 23.5°F-4.7°C 84% 1.1 mph WSW1.8 kmh WSW 2.5 mph4.0 kmh 30.00 in1015.9 mb 0.00 in0.0 mm 0.00 in/hr0.0 mm/hr 0.00 in0.0 mm
04:29 PM 27.7°F-2.4°C 23.5°F-4.7°C 84% 2.6 mph SW4.2 kmh SW 3.8 mph6.1 kmh 30.00 in1015.9 mb 0.00 in0.0 mm 0.00 in/hr0.0 mm/hr 0.00 in0.0 mm
04:34 PM 27.4°F-2.6°C 23.1°F-4.9°C 84% 1.0 mph WSW1.6 kmh WSW 3.8 mph6.1 kmh 30.00 in1015.9 mb 0.00 in0.0 mm 0.00 in/hr0.0 mm/hr 0.00 in0.0 mm
04:39 PM 27.4°F-2.6°C 23.1°F-4.9°C 84% 1.8 mph SW2.9 kmh SW 3.4 mph5.5 kmh 30.00 in1015.9 mb 0.00 in0.0 mm 0.00 in/hr0.0 mm/hr 0.00 in0.0 mm
04:44 PM 27.2°F-2.7°C 23.2°F-4.9°C 85% 1.6 mph SW2.6 kmh SW 2.2 mph3.5 kmh 30.00 in1015.9 mb 0.00 in0.0 mm 0.00 in/hr0.0 mm/hr 0.00 in0.0 mm
04:49 PM 27.2°F-2.7°C 23.2°F-4.9°C 85% 3.1 mph WSW5.0 kmh WSW 3.4 mph5.5 kmh 30.00 in1015.9 mb 0.00 in0.0 mm 0.00 in/hr0.0 mm/hr 0.00 in0.0 mm
04:54 PM 27.0°F-2.8°C 23.0°F-5.0°C 85% 1.9 mph WSW3.1 kmh WSW 3.4 mph5.5 kmh 30.00 in1015.9 mb 0.00 in0.0 mm 0.00 in/hr0.0 mm/hr 0.00 in0.0 mm
05:00 PM 27.0°F-2.8°C 23.0°F-5.0°C 85% 0.9 mph SW1.4 kmh SW 3.1 mph5.0 kmh 30.01 in1016.3 mb 0.00 in0.0 mm 0.00 in/hr0.0 mm/hr 0.00 in0.0 mm
05:05 PM 27.0°F-2.8°C 23.0°F-5.0°C 85% 1.8 mph WSW2.9 kmh WSW 2.7 mph4.3 kmh 30.01 in1016.3 mb 0.00 in0.0 mm 0.00 in/hr0.0 mm/hr 0.00 in0.0 mm
05:10 PM 26.8°F-2.9°C 22.9°F-5.1°C 85% 0.7 mph SW1.1 kmh SW 4.3 mph6.9 kmh 30.01 in1016.3 mb 0.00 in0.0 mm 0.00 in/hr0.0 mm/hr 0.00 in0.0 mm
05:15 PM 26.6°F-3.0°C 22.7°F-5.2°C 85% 2.7 mph SW4.3 kmh SW 4.3 mph6.9 kmh 30.01 in1016.3 mb 0.00 in0.0 mm 0.00 in/hr0.0 mm/hr 0.00 in0.0 mm
05:20 PM 26.6°F-3.0°C 23.0°F-5.0°C 86% 1.3 mph SW2.1 kmh SW 2.7 mph4.3 kmh 30.02 in1016.6 mb 0.00 in0.0 mm 0.00 in/hr0.0 mm/hr 0.00 in0.0 mm
05:25 PM 26.6°F-3.0°C 23.0°F-5.0°C 86% 0.4 mph WSW0.6 kmh WSW 1.8 mph2.9 kmh 30.02 in1016.6 mb 0.00 in0.0 mm 0.00 in/hr0.0 mm/hr 0.00 in0.0 mm
05:29 PM 26.6°F-3.0°C 23.0°F-5.0°C 86% 1.1 mph W1.8 kmh W 2.0 mph3.2 kmh 30.02 in1016.6 mb 0.00 in0.0 mm 0.00 in/hr0.0 mm/hr 0.00 in0.0 mm
05:34 PM 26.5°F-3.1°C 22.8°F-5.1°C 86% 0.4 mph WSW0.6 kmh WSW 2.0 mph3.2 kmh 30.02 in1016.6 mb 0.00 in0.0 mm 0.00 in/hr0.0 mm/hr 0.00 in0.0 mm
05:39 PM 26.3°F-3.2°C 22.6°F-5.2°C 86% 1.6 mph WSW2.6 kmh WSW 2.0 mph3.2 kmh 30.02 in1016.6 mb 0.00 in0.0 mm 0.00 in/hr0.0 mm/hr 0.00 in0.0 mm
05:44 PM 26.3°F-3.2°C 22.6°F-5.2°C 86% 3.2 mph WSW5.1 kmh WSW 3.6 mph5.8 kmh 30.02 in1016.6 mb 0.00 in0.0 mm 0.00 in/hr0.0 mm/hr 0.00 in0.0 mm
05:49 PM 26.3°F-3.2°C 22.6°F-5.2°C 86% 1.1 mph SW1.8 kmh SW 3.6 mph5.8 kmh 30.02 in1016.6 mb 0.00 in0.0 mm 0.00 in/hr0.0 mm/hr 0.00 in0.0 mm
05:54 PM 26.3°F-3.2°C 23.0°F-5.0°C 87% Calm Calm 1.8 mph2.9 kmh 30.02 in1016.6 mb 0.00 in0.0 mm 0.00 in/hr0.0 mm/hr 0.00 in0.0 mm
06:00 PM 26.3°F-3.2°C 23.0°F-5.0°C 87% 1.1 mph SW1.8 kmh SW 1.1 mph1.8 kmh 30.02 in1016.6 mb 0.00 in0.0 mm 0.00 in/hr0.0 mm/hr 0.00 in0.0 mm
06:05 PM 26.3°F-3.2°C 23.0°F-5.0°C 87% Calm Calm 1.1 mph1.8 kmh 30.02 in1016.6 mb 0.00 in0.0 mm 0.00 in/hr0.0 mm/hr 0.00 in0.0 mm
06:10 PM 26.3°F-3.2°C 23.0°F-5.0°C 87% Calm Calm 1.1 mph1.8 kmh 30.03 in1016.9 mb 0.00 in0.0 mm 0.00 in/hr0.0 mm/hr 0.00 in0.0 mm
06:15 PM 26.3°F-3.2°C 23.0°F-5.0°C 87% 0.4 mph SW0.6 kmh SW 1.1 mph1.8 kmh 30.03 in1016.9 mb 0.00 in0.0 mm 0.00 in/hr0.0 mm/hr 0.00 in0.0 mm
06:20 PM 26.1°F-3.3°C 22.8°F-5.1°C 87% Calm Calm 1.1 mph1.8 kmh 30.03 in1016.9 mb 0.00 in0.0 mm 0.00 in/hr0.0 mm/hr 0.00 in0.0 mm
06:25 PM 26.1°F-3.3°C 22.8°F-5.1°C 87% Calm Calm 0.2 mph0.3 kmh 30.03 in1016.9 mb 0.00 in0.0 mm 0.00 in/hr0.0 mm/hr 0.00 in0.0 mm
06:30 PM 26.1°F-3.3°C 22.8°F-5.1°C 87% 0.9 mph SW1.4 kmh SW 0.9 mph1.4 kmh 30.03 in1016.9 mb 0.00 in0.0 mm 0.00 in/hr0.0 mm/hr 0.00 in0.0 mm
06:35 PM 25.9°F-3.4°C 22.6°F-5.2°C 87% 0.3 mph SW0.5 kmh SW 0.9 mph1.4 kmh 30.03 in1016.9 mb 0.00 in0.0 mm 0.00 in/hr0.0 mm/hr 0.00 in0.0 mm
06:40 PM 25.9°F-3.4°C 22.6°F-5.2°C 87% 0.4 mph WSW0.6 kmh WSW 0.7 mph1.1 kmh 30.03 in1016.9 mb 0.00 in0.0 mm 0.00 in/hr0.0 mm/hr 0.00 in0.0 mm
06:45 PM 25.9°F-3.4°C 22.6°F-5.2°C 87% Calm Calm 0.4 mph0.6 kmh 30.03 in1016.9 mb 0.00 in0.0 mm 0.00 in/hr0.0 mm/hr 0.00 in0.0 mm
06:50 PM 25.9°F-3.4°C 22.6°F-5.2°C 87% Calm Calm 0.2 mph0.3 kmh 30.03 in1016.9 mb 0.00 in0.0 mm 0.00 in/hr0.0 mm/hr 0.00 in0.0 mm
06:55 PM 26.1°F-3.3°C 23.1°F-4.9°C 88% 0.2 mph WNW0.3 kmh WNW 1.1 mph1.8 kmh 30.03 in1016.9 mb 0.00 in0.0 mm 0.00 in/hr0.0 mm/hr 0.00 in0.0 mm
07:00 PM 26.1°F-3.3°C 23.1°F-4.9°C 88% 0.2 mph WNW0.3 kmh WNW 1.1 mph1.8 kmh 30.03 in1016.9 mb 0.00 in0.0 mm 0.00 in/hr0.0 mm/hr 0.00 in0.0 mm
07:05 PM 25.6°F-3.6°C 22.2°F-5.4°C 87% 2.5 mph N4.0 kmh N 2.5 mph4.0 kmh 30.03 in1016.9 mb 0.00 in0.0 mm 0.00 in/hr0.0 mm/hr 0.00 in0.0 mm
07:10 PM 24.8°F-4.0°C 21.5°F-5.8°C 87% 2.9 mph 4.7 kmh 4.7 mph7.6 kmh 30.03 in1016.9 mb 0.00 in0.0 mm 0.00 in/hr0.0 mm/hr 0.00 in0.0 mm
07:15 PM 24.5°F-4.2°C 21.2°F-6.0°C 87% 2.8 mph 4.5 kmh 4.7 mph7.6 kmh 30.03 in1016.9 mb 0.00 in0.0 mm 0.00 in/hr0.0 mm/hr 0.00 in0.0 mm
07:20 PM 24.3°F-4.3°C 21.2°F-6.0°C 88% 0.7 mph 1.1 kmh 3.4 mph5.5 kmh 30.04 in1017.3 mb 0.00 in0.0 mm 0.00 in/hr0.0 mm/hr 0.00 in0.0 mm
07:25 PM 24.3°F-4.3°C 21.2°F-6.0°C 88% 0.2 mph 0.3 kmh 2.7 mph4.3 kmh 30.04 in1017.3 mb 0.00 in0.0 mm 0.00 in/hr0.0 mm/hr 0.00 in0.0 mm
07:30 PM 24.3°F-4.3°C 21.2°F-6.0°C 88% 0.3 mph 0.5 kmh 0.9 mph1.4 kmh 30.04 in1017.3 mb 0.00 in0.0 mm 0.00 in/hr0.0 mm/hr 0.00 in0.0 mm
07:35 PM 24.3°F-4.3°C 21.2°F-6.0°C 88% 0.2 mph 0.3 kmh 1.1 mph1.8 kmh 30.04 in1017.3 mb 0.00 in0.0 mm 0.00 in/hr0.0 mm/hr 0.00 in0.0 mm
07:40 PM 24.3°F-4.3°C 21.2°F-6.0°C 88% Calm Calm 1.1 mph1.8 kmh 30.04 in1017.3 mb 0.00 in0.0 mm 0.00 in/hr0.0 mm/hr 0.00 in0.0 mm
07:45 PM 24.3°F-4.3°C 21.2°F-6.0°C 88% 0.2 mph 0.3 kmh 0.2 mph0.3 kmh 30.04 in1017.3 mb 0.00 in0.0 mm 0.00 in/hr0.0 mm/hr 0.00 in0.0 mm
07:50 PM 24.3°F-4.3°C 21.2°F-6.0°C 88% 0.4 mph 0.6 kmh 0.4 mph0.6 kmh 30.04 in1017.3 mb 0.00 in0.0 mm 0.00 in/hr0.0 mm/hr 0.00 in0.0 mm
07:55 PM 24.1°F-4.4°C 21.1°F-6.1°C 88% Calm Calm 0.4 mph0.6 kmh 30.04 in1017.3 mb 0.00 in0.0 mm 0.00 in/hr0.0 mm/hr 0.00 in0.0 mm
08:01 PM 24.1°F-4.4°C 21.1°F-6.1°C 88% 0.2 mph 0.3 kmh 0.2 mph0.3 kmh 30.04 in1017.3 mb 0.00 in0.0 mm 0.00 in/hr0.0 mm/hr 0.00 in0.0 mm
08:06 PM 24.1°F-4.4°C 21.1°F-6.1°C 88% 0.2 mph 0.3 kmh 0.4 mph0.6 kmh 30.05 in1017.6 mb 0.00 in0.0 mm 0.00 in/hr0.0 mm/hr 0.00 in0.0 mm
08:10 PM 24.1°F-4.4°C 21.1°F-6.1°C 88% Calm Calm 0.4 mph0.6 kmh 30.04 in1017.3 mb 0.00 in0.0 mm 0.00 in/hr0.0 mm/hr 0.00 in0.0 mm
08:15 PM 24.3°F-4.3°C 21.2°F-6.0°C 88% Calm Calm -- 30.04 in1017.3 mb 0.00 in0.0 mm 0.00 in/hr0.0 mm/hr 0.00 in0.0 mm
08:20 PM 24.5°F-4.2°C 21.4°F-5.9°C 88% Calm Calm -- 30.04 in1017.3 mb 0.00 in0.0 mm 0.00 in/hr0.0 mm/hr 0.00 in0.0 mm
08:25 PM 24.5°F-4.2°C 21.4°F-5.9°C 88% Calm Calm -- 30.04 in1017.3 mb 0.00 in0.0 mm 0.00 in/hr0.0 mm/hr 0.00 in0.0 mm
08:30 PM 24.5°F-4.2°C 21.4°F-5.9°C 88% 0.2 mph 0.3 kmh 0.2 mph0.3 kmh 30.04 in1017.3 mb 0.00 in0.0 mm 0.00 in/hr0.0 mm/hr 0.00 in0.0 mm
08:35 PM 24.5°F-4.2°C 21.4°F-5.9°C 88% Calm Calm 0.2 mph0.3 kmh 30.04 in1017.3 mb 0.00 in0.0 mm 0.00 in/hr0.0 mm/hr 0.00 in0.0 mm
08:40 PM 24.5°F-4.2°C 21.4°F-5.9°C 88% 0.4 mph 0.6 kmh 0.7 mph1.1 kmh 30.04 in1017.3 mb 0.00 in0.0 mm 0.00 in/hr0.0 mm/hr 0.00 in0.0 mm
08:45 PM 24.5°F-4.2°C 21.4°F-5.9°C 88% 0.2 mph 0.3 kmh 0.9 mph1.4 kmh 30.04 in1017.3 mb 0.00 in0.0 mm 0.00 in/hr0.0 mm/hr 0.00 in0.0 mm
08:50 PM 24.5°F-4.2°C 21.4°F-5.9°C 88% Calm Calm 0.9 mph1.4 kmh 30.04 in1017.3 mb 0.00 in0.0 mm 0.00 in/hr0.0 mm/hr 0.00 in0.0 mm
08:55 PM 24.7°F-4.1°C 21.6°F-5.8°C 88% Calm Calm -- 30.04 in1017.3 mb 0.00 in0.0 mm 0.00 in/hr0.0 mm/hr 0.00 in0.0 mm
09:01 PM 24.7°F-4.1°C 21.6°F-5.8°C 88% Calm Calm -- 30.04 in1017.3 mb 0.00 in0.0 mm 0.00 in/hr0.0 mm/hr 0.00 in0.0 mm
09:06 PM 24.5°F-4.2°C 21.4°F-5.9°C 88% Calm Calm 0.2 mph0.3 kmh 30.05 in1017.6 mb 0.00 in0.0 mm 0.00 in/hr0.0 mm/hr 0.00 in0.0 mm
09:11 PM 24.3°F-4.3°C 21.2°F-6.0°C 88% Calm Calm 0.2 mph0.3 kmh 30.04 in1017.3 mb 0.00 in0.0 mm 0.00 in/hr0.0 mm/hr 0.00 in0.0 mm
09:16 PM 24.3°F-4.3°C 21.2°F-6.0°C 88% 0.2 mph 0.3 kmh 0.2 mph0.3 kmh 30.04 in1017.3 mb 0.00 in0.0 mm 0.00 in/hr0.0 mm/hr 0.00 in0.0 mm
09:21 PM 24.5°F-4.2°C 21.4°F-5.9°C 88% Calm Calm 0.2 mph0.3 kmh 30.04 in1017.3 mb 0.00 in0.0 mm 0.00 in/hr0.0 mm/hr 0.00 in0.0 mm
09:26 PM 24.5°F-4.2°C 21.4°F-5.9°C 88% Calm Calm -- 30.04 in1017.3 mb 0.00 in0.0 mm 0.00 in/hr0.0 mm/hr 0.00 in0.0 mm
09:31 PM 24.3°F-4.3°C 21.2°F-6.0°C 88% 0.2 mph 0.3 kmh 0.4 mph0.6 kmh 30.04 in1017.3 mb 0.00 in0.0 mm 0.00 in/hr0.0 mm/hr 0.00 in0.0 mm
09:36 PM 24.3°F-4.3°C 21.2°F-6.0°C 88% Calm Calm 0.4 mph0.6 kmh 30.04 in1017.3 mb 0.00 in0.0 mm 0.00 in/hr0.0 mm/hr 0.00 in0.0 mm
09:40 PM 24.3°F-4.3°C 21.2°F-6.0°C 88% Calm Calm 0.2 mph0.3 kmh 30.05 in1017.6 mb 0.00 in0.0 mm 0.00 in/hr0.0 mm/hr 0.00 in0.0 mm
09:45 PM 24.3°F-4.3°C 21.2°F-6.0°C 88% Calm Calm -- 30.04 in1017.3 mb 0.00 in0.0 mm 0.00 in/hr0.0 mm/hr 0.00 in0.0 mm
09:50 PM 24.3°F-4.3°C 21.2°F-6.0°C 88% Calm Calm -- 30.05 in1017.6 mb 0.00 in0.0 mm 0.00 in/hr0.0 mm/hr 0.00 in0.0 mm
09:55 PM 24.3°F-4.3°C 21.5°F-5.8°C 89% Calm Calm -- 30.05 in1017.6 mb 0.00 in0.0 mm 0.00 in/hr0.0 mm/hr 0.00 in0.0 mm
10:01 PM 24.3°F-4.3°C 21.5°F-5.8°C 89% Calm Calm -- 30.04 in1017.3 mb 0.00 in0.0 mm 0.00 in/hr0.0 mm/hr 0.00 in0.0 mm
10:06 PM 24.3°F-4.3°C 21.5°F-5.8°C 89% 0.2 mph 0.3 kmh 0.2 mph0.3 kmh 30.05 in1017.6 mb 0.00 in0.0 mm 0.00 in/hr0.0 mm/hr 0.00 in0.0 mm
10:11 PM 24.3°F-4.3°C 21.2°F-6.0°C 88% Calm Calm 0.2 mph0.3 kmh 30.04 in1017.3 mb 0.00 in0.0 mm 0.00 in/hr0.0 mm/hr 0.00 in0.0 mm
10:16 PM 24.3°F-4.3°C 21.2°F-6.0°C 88% Calm Calm 0.2 mph0.3 kmh 30.05 in1017.6 mb 0.00 in0.0 mm 0.00 in/hr0.0 mm/hr 0.00 in0.0 mm
10:21 PM 24.3°F-4.3°C 21.2°F-6.0°C 88% Calm Calm -- 30.05 in1017.6 mb 0.00 in0.0 mm 0.00 in/hr0.0 mm/hr 0.00 in0.0 mm
10:26 PM 24.1°F-4.4°C 21.1°F-6.1°C 88% 0.4 mph 0.6 kmh 0.4 mph0.6 kmh 30.04 in1017.3 mb 0.00 in0.0 mm 0.00 in/hr0.0 mm/hr 0.00 in0.0 mm
10:31 PM 24.1°F-4.4°C 21.1°F-6.1°C 88% Calm Calm 0.4 mph0.6 kmh 30.05 in1017.6 mb 0.00 in0.0 mm 0.00 in/hr0.0 mm/hr 0.00 in0.0 mm
10:36 PM 24.1°F-4.4°C 21.3°F-5.9°C 89% 0.2 mph 0.3 kmh 0.2 mph0.3 kmh 30.05 in1017.6 mb 0.00 in0.0 mm 0.00 in/hr0.0 mm/hr 0.00 in0.0 mm
10:41 PM 23.9°F-4.5°C 21.2°F-6.0°C 89% 0.2 mph 0.3 kmh 0.2 mph0.3 kmh 30.05 in1017.6 mb 0.00 in0.0 mm 0.00 in/hr0.0 mm/hr 0.00 in0.0 mm
10:46 PM 23.9°F-4.5°C 21.2°F-6.0°C 89% Calm Calm 0.2 mph0.3 kmh 30.05 in1017.6 mb 0.00 in0.0 mm 0.00 in/hr0.0 mm/hr 0.00 in0.0 mm
10:51 PM 23.9°F-4.5°C 21.2°F-6.0°C 89% Calm Calm -- 30.05 in1017.6 mb 0.00 in0.0 mm 0.00 in/hr0.0 mm/hr 0.00 in0.0 mm
10:56 PM 23.9°F-4.5°C 20.9°F-6.2°C 88% Calm Calm -- 30.05 in1017.6 mb 0.00 in0.0 mm 0.00 in/hr0.0 mm/hr 0.00 in0.0 mm
11:01 PM 23.9°F-4.5°C 20.9°F-6.2°C 88% Calm Calm -- 30.05 in1017.6 mb 0.00 in0.0 mm 0.00 in/hr0.0 mm/hr 0.00 in0.0 mm
11:06 PM 23.8°F-4.6°C 20.7°F-6.3°C 88% Calm Calm -- 30.05 in1017.6 mb 0.00 in0.0 mm 0.00 in/hr0.0 mm/hr 0.00 in0.0 mm
11:11 PM 23.6°F-4.7°C 20.8°F-6.2°C 89% Calm Calm -- 30.05 in1017.6 mb 0.00 in0.0 mm 0.00 in/hr0.0 mm/hr 0.00 in0.0 mm
11:16 PM 23.6°F-4.7°C 20.5°F-6.4°C 88% 0.2 mph 0.3 kmh 0.4 mph0.6 kmh 30.05 in1017.6 mb 0.00 in0.0 mm 0.00 in/hr0.0 mm/hr 0.00 in0.0 mm
11:21 PM 23.4°F-4.8°C 20.6°F-6.3°C 89% 0.2 mph 0.3 kmh 0.4 mph0.6 kmh 30.05 in1017.6 mb 0.00 in0.0 mm 0.00 in/hr0.0 mm/hr 0.00 in0.0 mm
11:26 PM 23.4°F-4.8°C 20.3°F-6.5°C 88% 0.6 mph 1.0 kmh 1.1 mph1.8 kmh 30.05 in1017.6 mb 0.00 in0.0 mm 0.00 in/hr0.0 mm/hr 0.00 in0.0 mm
11:31 PM 23.4°F-4.8°C 20.3°F-6.5°C 88% 0.7 mph 1.1 kmh 1.1 mph1.8 kmh 30.05 in1017.6 mb 0.00 in0.0 mm 0.00 in/hr0.0 mm/hr 0.00 in0.0 mm
11:36 PM 23.2°F-4.9°C 20.2°F-6.6°C 88% 1.0 mph 1.6 kmh 1.6 mph2.6 kmh 30.05 in1017.6 mb 0.00 in0.0 mm 0.00 in/hr0.0 mm/hr 0.00 in0.0 mm
11:41 PM 23.2°F-4.9°C 20.2°F-6.6°C 88% 0.2 mph 0.3 kmh 1.6 mph2.6 kmh 30.05 in1017.6 mb 0.00 in0.0 mm 0.00 in/hr0.0 mm/hr 0.00 in0.0 mm
11:46 PM 23.2°F-4.9°C 20.2°F-6.6°C 88% 0.2 mph 0.3 kmh 0.9 mph1.4 kmh 30.05 in1017.6 mb 0.00 in0.0 mm 0.00 in/hr0.0 mm/hr 0.00 in0.0 mm
11:51 PM 23.4°F-4.8°C 20.3°F-6.5°C 88% 0.4 mph 0.6 kmh 0.4 mph0.6 kmh 30.05 in1017.6 mb 0.00 in0.0 mm 0.00 in/hr0.0 mm/hr 0.00 in0.0 mm
11:56 PM 23.2°F-4.9°C 20.2°F-6.6°C 88% 0.7 mph 1.1 kmh 1.3 mph2.1 kmh 30.05 in1017.6 mb 0.00 in0.0 mm 0.00 in/hr0.0 mm/hr 0.00 in0.0 mm